createdAt,value
2022-11-16T00:01:47.627Z,7.38
2022-11-16T00:04:15.667Z,6.38
2022-11-16T00:06:43.610Z,5.13
2022-11-16T00:09:26.900Z,6.38
2022-11-16T00:11:57.236Z,4.88
2022-11-16T00:14:29.972Z,6.47
2022-11-16T00:16:58.825Z,6.70
2022-11-16T00:19:27.494Z,6.25
2022-11-16T00:21:55.938Z,7.07
2022-11-16T00:24:24.607Z,6.45
2022-11-16T00:26:54.964Z,5.43
2022-11-16T00:29:24.760Z,7.22
2022-11-16T00:31:54.963Z,6.95
2022-11-16T00:34:23.721Z,7.35
2022-11-16T00:36:52.186Z,6.63
2022-11-16T00:39:21.803Z,8.15
2022-11-16T00:41:50.006Z,6.85
2022-11-16T00:44:18.039Z,7.55
2022-11-16T00:46:46.328Z,8.50
2022-11-16T00:49:16.713Z,6.72
2022-11-16T00:51:44.670Z,7.18
2022-11-16T00:54:12.682Z,6.75
2022-11-16T00:56:40.893Z,7.10
2022-11-16T00:59:09.176Z,8.30
2022-11-16T01:01:37.153Z,7.57
2022-11-16T01:04:05.328Z,7.63
2022-11-16T01:06:34.623Z,6.15
2022-11-16T01:09:02.949Z,5.93
2022-11-16T01:11:48.487Z,6.13
2022-11-16T01:14:16.633Z,6.25
2022-11-16T01:16:44.593Z,6.82
2022-11-16T01:19:12.604Z,6.20
2022-11-16T01:21:42.280Z,7.43
2022-11-16T01:24:10.252Z,6.10
2022-11-16T01:26:38.161Z,7.13
2022-11-16T01:29:06.294Z,6.50
2022-11-16T01:31:34.404Z,7.03
2022-11-16T01:34:02.341Z,7.30
2022-11-16T01:36:30.963Z,7.18
2022-11-16T01:39:00.384Z,8.15
2022-11-16T01:41:29.077Z,8.18
2022-11-16T01:43:59.790Z,9.18
2022-11-16T01:46:28.923Z,11.50
2022-11-16T01:49:03.005Z,9.52
2022-11-16T01:51:31.374Z,9.52
2022-11-16T01:54:02.679Z,9.35
2022-11-16T01:56:34.017Z,9.63
2022-11-16T01:59:02.088Z,8.52
2022-11-16T02:01:30.214Z,8.90
2022-11-16T02:03:58.215Z,8.88
2022-11-16T02:06:45.126Z,8.82
2022-11-16T02:09:50.903Z,9.85
2022-11-16T02:12:40.300Z,9.38
2022-11-16T02:15:17.419Z,8.35
2022-11-16T02:17:55.723Z,8.95
2022-11-16T02:20:44.337Z,8.52
2022-11-16T02:23:44.478Z,9.07
2022-11-16T02:26:37.138Z,10.43
2022-11-16T02:29:19.966Z,9.25
2022-11-16T02:31:59.700Z,9.93
2022-11-16T02:34:33.025Z,9.98
2022-11-16T02:37:03.940Z,8.95
2022-11-16T02:39:34.716Z,11.20
2022-11-16T02:42:06.983Z,9.35
2022-11-16T02:44:40.038Z,9.75
2022-11-16T02:47:14.177Z,9.88
2022-11-16T02:49:48.632Z,10.05
2022-11-16T02:52:17.769Z,8.23
2022-11-16T02:54:45.724Z,9.52
2022-11-16T02:57:34.646Z,10.85
2022-11-16T03:00:06.955Z,9.15
2022-11-16T03:02:40.713Z,11.20
2022-11-16T03:05:15.954Z,9.77
2022-11-16T03:07:49.162Z,9.35
2022-11-16T03:10:40.784Z,8.32
2022-11-16T03:13:10.340Z,10.38
2022-11-16T03:15:42.005Z,10.65
2022-11-16T03:18:10.999Z,7.88
2022-11-16T03:20:40.675Z,8.95
2022-11-16T03:23:12.761Z,9.60
2022-11-16T03:25:50.680Z,9.55
2022-11-16T03:28:23.973Z,8.68
2022-11-16T03:30:59.935Z,10.55
2022-11-16T03:33:34.665Z,10.63
2022-11-16T03:36:08.276Z,9.52
2022-11-16T03:38:38.537Z,9.38
2022-11-16T03:41:09.563Z,8.82
2022-11-16T03:43:39.889Z,9.60
2022-11-16T03:46:10.890Z,9.70
2022-11-16T03:48:41.352Z,11.50
2022-11-16T03:51:11.418Z,11.70
2022-11-16T03:53:39.415Z,10.15
2022-11-16T03:56:10.451Z,9.90
2022-11-16T03:58:38.501Z,10.85
2022-11-16T04:01:06.729Z,10.30
2022-11-16T04:03:36.226Z,9.93
2022-11-16T04:06:21.620Z,10.25
2022-11-16T04:09:07.232Z,10.82
2022-11-16T04:11:53.264Z,12.30
2022-11-16T04:14:40.904Z,10.18
2022-11-16T04:17:30.280Z,12.38
2022-11-16T04:20:17.351Z,11.40
2022-11-16T04:23:04.639Z,11.93
2022-11-16T04:25:39.754Z,13.32
2022-11-16T04:28:13.463Z,13.10
2022-11-16T04:31:00.183Z,13.07
2022-11-16T04:33:46.241Z,13.45
2022-11-16T04:36:32.922Z,12.68
2022-11-16T04:39:02.343Z,12.40
2022-11-16T04:41:51.844Z,11.88
2022-11-16T04:44:20.506Z,11.98
2022-11-16T04:47:08.804Z,11.32
2022-11-16T04:49:41.607Z,11.50
2022-11-16T04:52:10.993Z,11.77
2022-11-16T04:54:39.169Z,12.73
2022-11-16T04:57:07.209Z,10.80
2022-11-16T04:59:35.228Z,12.48
2022-11-16T05:02:09.170Z,12.90
2022-11-16T05:04:37.366Z,11.60
2022-11-16T05:07:11.368Z,12.68
2022-11-16T05:09:43.131Z,12.10
2022-11-16T05:12:11.758Z,12.63
2022-11-16T05:14:39.784Z,13.38
2022-11-16T05:17:07.991Z,12.82
2022-11-16T05:19:54.049Z,12.43
2022-11-16T05:22:22.027Z,14.90
2022-11-16T05:24:51.489Z,14.35
2022-11-16T05:27:24.014Z,13.60
2022-11-16T05:29:52.721Z,14.20
2022-11-16T05:32:22.009Z,13.05
2022-11-16T05:34:50.401Z,14.60
2022-11-16T05:37:21.022Z,15.75
2022-11-16T05:39:49.308Z,14.77
2022-11-16T05:42:18.961Z,15.07
2022-11-16T05:44:46.969Z,15.32
2022-11-16T05:47:15.210Z,14.45
2022-11-16T05:49:43.353Z,19.50
2022-11-16T05:52:11.452Z,15.73
2022-11-16T05:54:39.427Z,15.48
2022-11-16T05:57:07.604Z,17.80
2022-11-16T05:59:37.306Z,16.50
2022-11-16T06:02:05.491Z,16.20
2022-11-16T06:04:34.505Z,17.48
2022-11-16T06:07:02.640Z,17.13
2022-11-16T06:09:30.639Z,17.30
2022-11-16T06:12:00.256Z,15.73
2022-11-16T06:14:50.155Z,17.50
2022-11-16T06:17:18.508Z,17.05
2022-11-16T06:19:46.799Z,16.23
2022-11-16T06:22:14.963Z,16.58
2022-11-16T06:24:46.103Z,18.60
2022-11-16T06:27:14.051Z,17.63
2022-11-16T06:29:43.409Z,16.80
2022-11-16T06:32:11.352Z,16.70
2022-11-16T06:34:39.277Z,19.00
2022-11-16T06:37:07.840Z,15.10
2022-11-16T06:39:35.934Z,16.80
2022-11-16T06:42:03.947Z,16.85
2022-11-16T06:44:31.906Z,15.65
2022-11-16T06:47:01.221Z,16.08
2022-11-16T06:49:29.347Z,15.93
2022-11-16T06:51:57.352Z,17.20
2022-11-16T06:54:25.324Z,15.75
2022-11-16T06:56:53.390Z,15.00
2022-11-16T06:59:21.865Z,14.73
2022-11-16T07:01:50.000Z,16.15
2022-11-16T07:04:19.496Z,16.83
2022-11-16T07:06:47.649Z,15.43
2022-11-16T07:09:16.503Z,17.42
2022-11-16T07:11:44.591Z,16.73
2022-11-16T07:14:13.263Z,16.90
2022-11-16T07:16:41.306Z,16.77
2022-11-16T07:19:10.291Z,15.45
2022-11-16T07:21:40.234Z,14.88
2022-11-16T07:24:08.293Z,17.55
2022-11-16T07:26:36.373Z,16.55
2022-11-16T07:29:04.655Z,18.33
2022-11-16T07:31:32.598Z,16.33
2022-11-16T07:34:00.490Z,18.00
2022-11-16T07:36:28.431Z,19.48
2022-11-16T07:38:57.915Z,19.15
2022-11-16T07:41:25.887Z,19.80
2022-11-16T07:43:54.582Z,16.70
2022-11-16T07:49:16.080Z,19.45
2022-11-16T07:51:51.242Z,18.25
2022-11-16T07:54:20.818Z,17.45
2022-11-16T07:56:59.788Z,21.02
2022-11-16T07:59:33.605Z,20.15
2022-11-16T08:02:08.440Z,21.75
2022-11-16T08:04:38.592Z,20.30
2022-11-16T08:07:06.810Z,21.20
2022-11-16T08:09:40.118Z,19.75
2022-11-16T08:12:10.355Z,20.88
2022-11-16T08:14:38.339Z,19.60
2022-11-16T08:17:08.597Z,20.23
2022-11-16T08:19:40.346Z,19.85
2022-11-16T08:22:08.291Z,20.38
2022-11-16T08:24:37.697Z,20.25
2022-11-16T08:27:05.842Z,19.35
2022-11-16T08:29:33.990Z,21.65
2022-11-16T08:32:01.917Z,19.38
2022-11-16T08:34:29.825Z,20.30
2022-11-16T08:36:57.725Z,19.05
2022-11-16T08:39:25.629Z,20.83
2022-11-16T08:41:55.140Z,18.25
2022-11-16T08:44:26.193Z,21.67
2022-11-16T08:46:54.287Z,20.38
2022-11-16T08:49:22.318Z,20.95
2022-11-16T08:51:50.374Z,19.52
2022-11-16T08:54:18.439Z,20.85
2022-11-16T08:56:46.376Z,19.80
2022-11-16T08:59:15.645Z,22.63
2022-11-16T09:01:43.690Z,19.27
2022-11-16T09:04:11.669Z,19.73
2022-11-16T09:06:39.835Z,20.35
2022-11-16T09:09:07.893Z,22.58
2022-11-16T09:11:35.723Z,23.00
2022-11-16T09:14:04.069Z,24.73
2022-11-16T09:16:33.530Z,20.23
2022-11-16T09:19:02.841Z,21.63
2022-11-16T09:21:31.427Z,19.45
2022-11-16T09:23:59.709Z,20.17
2022-11-16T09:26:28.552Z,26.75
2022-11-16T09:29:01.358Z,21.60
2022-11-16T09:31:30.408Z,21.13
2022-11-16T09:34:00.652Z,20.75
2022-11-16T09:36:29.615Z,18.50
2022-11-16T09:42:08.303Z,21.40
2022-11-16T09:44:59.064Z,23.17
2022-11-16T09:47:40.410Z,21.45
2022-11-16T09:50:31.447Z,22.00
2022-11-16T09:53:07.177Z,21.02
2022-11-16T09:55:40.546Z,20.08
2022-11-16T09:58:15.635Z,21.98
2022-11-16T10:00:48.210Z,19.23
2022-11-16T10:03:16.972Z,20.17
2022-11-16T10:05:51.032Z,19.98
2022-11-16T10:08:26.040Z,21.55
2022-11-16T10:11:03.842Z,20.52
2022-11-16T10:13:48.398Z,20.90
2022-11-16T10:16:27.426Z,20.42
2022-11-16T10:19:00.887Z,20.08
2022-11-16T10:21:42.729Z,21.77
2022-11-16T10:24:33.487Z,22.85
2022-11-16T10:27:20.801Z,21.02
2022-11-16T10:30:02.910Z,20.48
2022-11-16T10:32:36.147Z,20.67
2022-11-16T10:35:09.216Z,20.30
2022-11-16T10:37:43.506Z,21.45
2022-11-16T10:40:23.385Z,21.58
2022-11-16T10:43:03.364Z,18.73
2022-11-16T10:45:38.883Z,18.75
2022-11-16T10:48:23.923Z,20.25
2022-11-16T10:50:53.579Z,20.10
2022-11-16T10:53:29.889Z,18.40
2022-11-16T10:56:12.598Z,18.25
2022-11-16T10:59:02.457Z,20.17
2022-11-16T11:01:36.866Z,22.05
2022-11-16T11:04:17.443Z,21.15
2022-11-16T11:06:46.244Z,19.80
2022-11-16T11:09:26.232Z,20.42
2022-11-16T11:12:20.680Z,20.50
2022-11-16T11:15:08.103Z,22.33
2022-11-16T11:17:37.146Z,21.98
2022-11-16T11:20:08.840Z,19.17
2022-11-16T11:22:45.159Z,18.75
2022-11-16T11:25:30.233Z,20.77
2022-11-16T11:28:06.570Z,18.70
2022-11-16T11:30:36.242Z,19.75
2022-11-16T11:33:12.961Z,18.48
2022-11-16T11:35:41.124Z,21.17
2022-11-16T11:38:16.146Z,19.23
2022-11-16T11:40:58.557Z,18.42
2022-11-16T11:43:27.480Z,19.52
2022-11-16T11:46:04.002Z,19.33
2022-11-16T11:48:40.884Z,17.95
2022-11-16T11:51:16.109Z,19.35
2022-11-16T11:53:56.976Z,18.50
2022-11-16T11:56:28.121Z,20.75
2022-11-16T11:58:57.363Z,18.70
2022-11-16T12:01:52.429Z,16.52
2022-11-16T12:04:46.918Z,17.95
2022-11-16T12:07:28.371Z,19.60
2022-11-16T12:10:03.943Z,17.77
2022-11-16T12:12:43.353Z,16.63
2022-11-16T12:15:37.888Z,17.52
2022-11-16T12:18:18.001Z,17.95
2022-11-16T12:20:53.657Z,16.80
2022-11-16T12:23:41.911Z,16.98
2022-11-16T12:26:19.699Z,16.17
2022-11-16T12:29:40.061Z,15.38
2022-11-16T12:32:43.137Z,16.27
2022-11-16T12:35:49.110Z,18.13
2022-11-16T12:38:45.813Z,16.50
2022-11-16T12:41:40.685Z,17.23
2022-11-16T12:44:15.758Z,17.35
2022-11-16T12:46:53.490Z,17.20
2022-11-16T12:50:08.408Z,15.52
2022-11-16T12:52:55.289Z,14.85
2022-11-16T12:55:29.498Z,17.77
2022-11-16T12:58:22.475Z,19.52
2022-11-16T13:01:06.258Z,18.17
2022-11-16T13:03:39.584Z,18.63
2022-11-16T13:06:14.890Z,16.45
2022-11-16T13:08:53.388Z,17.75
2022-11-16T13:11:24.552Z,17.63
2022-11-16T13:14:05.683Z,16.77
2022-11-16T13:17:08.768Z,16.35
2022-11-16T13:19:48.281Z,16.52
2022-11-16T13:22:48.224Z,16.38
2022-11-16T13:25:32.958Z,14.60
2022-11-16T13:28:14.970Z,16.23
2022-11-16T13:31:00.027Z,16.08
2022-11-16T13:33:50.949Z,15.80
2022-11-16T13:36:50.389Z,15.60
2022-11-16T13:40:04.845Z,14.35
2022-11-16T13:42:35.839Z,14.32
2022-11-16T13:45:09.837Z,16.00
2022-11-16T13:47:39.066Z,15.50
2022-11-16T13:50:17.999Z,16.17
2022-11-16T13:53:46.297Z,16.63
2022-11-16T13:55:42.329Z,15.85
2022-11-16T13:58:13.110Z,16.77
2022-11-16T14:00:42.381Z,15.55
2022-11-16T14:03:31.297Z,15.40
2022-11-16T14:06:00.416Z,16.08
2022-11-16T14:08:49.426Z,15.85
2022-11-16T14:11:52.314Z,15.43
2022-11-16T14:15:03.377Z,16.90
2022-11-16T14:18:01.809Z,17.48
2022-11-16T14:21:37.245Z,17.77
2022-11-16T14:24:19.842Z,15.63
2022-11-16T14:26:59.681Z,16.58
2022-11-16T14:30:02.201Z,15.43
2022-11-16T14:32:49.599Z,15.23
2022-11-16T14:36:04.703Z,14.70
2022-11-16T14:38:35.372Z,14.00
2022-11-16T14:41:06.012Z,15.38
2022-11-16T14:43:39.932Z,15.95
2022-11-16T14:46:16.386Z,14.98
2022-11-16T14:48:45.635Z,15.82
2022-11-16T14:51:17.745Z,18.98
2022-11-16T14:53:49.943Z,16.50
2022-11-16T14:59:43.402Z,16.25
2022-11-16T15:02:51.407Z,14.10
2022-11-16T15:05:35.436Z,15.90
2022-11-16T15:08:13.046Z,13.90
2022-11-16T15:19:16.571Z,14.68
2022-11-16T15:22:24.693Z,15.35
2022-11-16T15:25:00.216Z,16.50
2022-11-16T15:27:38.202Z,16.90
2022-11-16T15:30:20.421Z,18.05
2022-11-16T15:32:51.231Z,13.75
2022-11-16T15:35:28.927Z,16.40
2022-11-16T15:38:25.121Z,14.95
2022-11-16T15:44:14.728Z,13.98
2022-11-16T15:47:30.158Z,14.88
2022-11-16T15:50:03.113Z,13.30
2022-11-16T15:52:50.231Z,14.35
2022-11-16T15:55:29.048Z,13.35
2022-11-16T15:58:16.045Z,13.05
2022-11-16T16:00:51.259Z,12.93
2022-11-16T16:03:25.120Z,13.43
2022-11-16T16:05:55.774Z,12.57
2022-11-16T16:08:33.043Z,12.50
2022-11-16T16:11:04.482Z,12.30
2022-11-16T16:13:42.288Z,12.57
2022-11-16T16:16:32.039Z,11.10
2022-11-16T16:19:43.455Z,11.00
2022-11-16T16:22:29.929Z,12.48
2022-11-16T16:25:13.449Z,12.57
2022-11-16T16:27:47.910Z,9.82
2022-11-16T16:30:25.264Z,10.93
2022-11-16T16:32:57.916Z,10.75
2022-11-16T16:35:27.495Z,11.48
2022-11-16T16:38:25.227Z,9.85
2022-11-16T16:41:24.221Z,10.05
2022-11-16T16:44:00.528Z,9.00
2022-11-16T16:46:31.924Z,11.40
2022-11-16T16:49:19.068Z,12.38
2022-11-16T16:52:00.895Z,10.05
2022-11-16T16:54:31.886Z,11.00
2022-11-16T16:57:15.276Z,11.05
2022-11-16T16:59:45.133Z,9.57
2022-11-16T17:02:25.617Z,9.50
2022-11-16T17:04:54.998Z,10.50
2022-11-16T17:16:17.150Z,9.05
2022-11-16T17:19:01.921Z,9.50
2022-11-16T17:21:30.530Z,9.23
2022-11-16T17:24:01.280Z,9.23
2022-11-16T17:26:30.224Z,8.32
2022-11-16T17:28:59.088Z,9.57
2022-11-16T17:31:29.336Z,9.82
2022-11-16T17:34:00.084Z,9.20
2022-11-16T17:36:29.163Z,8.43
2022-11-16T17:39:03.093Z,8.50
2022-11-16T17:41:32.774Z,9.13
2022-11-16T17:44:11.502Z,8.63
2022-11-16T17:50:01.401Z,8.40
2022-11-16T17:55:52.067Z,9.55
2022-11-16T17:58:28.237Z,9.32
2022-11-16T18:02:40.635Z,9.38
2022-11-16T18:08:51.378Z,8.88
2022-11-16T18:11:22.191Z,9.40
2022-11-16T18:14:00.337Z,8.20
2022-11-16T18:16:31.660Z,8.07
2022-11-16T18:19:13.114Z,8.02
2022-11-16T18:21:53.729Z,7.82
2022-11-16T18:24:38.132Z,8.95
2022-11-16T18:27:08.869Z,9.13
2022-11-16T18:29:42.727Z,7.90
2022-11-16T18:32:14.506Z,8.13
2022-11-16T18:34:45.845Z,6.95
2022-11-16T18:37:44.030Z,6.35
2022-11-16T18:40:55.314Z,7.82
2022-11-16T18:44:03.051Z,6.25
2022-11-16T18:47:05.728Z,6.80
2022-11-16T18:53:12.206Z,7.53
2022-11-16T18:55:58.196Z,5.82
2022-11-16T18:59:00.461Z,5.93
2022-11-16T19:02:15.384Z,6.97
2022-11-16T19:04:58.913Z,6.78
2022-11-16T19:07:38.983Z,5.65
2022-11-16T19:10:29.358Z,6.95
2022-11-16T19:13:19.144Z,6.63
2022-11-16T19:18:55.281Z,4.50
2022-11-16T19:21:29.402Z,5.50
2022-11-16T19:24:06.276Z,4.78
2022-11-16T19:27:20.112Z,4.57
2022-11-16T19:31:35.975Z,4.20
2022-11-16T19:50:06.176Z,4.43
2022-11-16T19:52:40.013Z,5.13
2022-11-16T19:55:13.813Z,6.22
2022-11-16T19:57:44.837Z,4.85
2022-11-16T20:00:35.436Z,4.55
2022-11-16T20:03:06.589Z,5.43
2022-11-16T20:05:39.021Z,4.15
2022-11-16T20:08:09.184Z,5.22
2022-11-16T20:10:45.882Z,4.22
2022-11-16T20:13:17.724Z,5.05
2022-11-16T20:31:45.564Z,4.43
2022-11-16T20:34:34.005Z,4.00
2022-11-16T20:37:05.805Z,4.05
2022-11-16T20:39:36.639Z,3.80
2022-11-16T20:42:05.376Z,3.67
2022-11-16T20:44:35.637Z,3.92
2022-11-16T20:47:07.977Z,4.65
2022-11-16T20:49:40.551Z,3.60
2022-11-16T20:52:26.451Z,3.92
2022-11-16T20:54:56.246Z,3.63
2022-11-16T20:57:24.786Z,4.10
2022-11-16T20:59:59.062Z,3.78
2022-11-16T21:02:28.706Z,4.57
2022-11-16T21:05:00.277Z,4.00
2022-11-16T21:07:29.584Z,3.42
2022-11-16T21:10:15.713Z,4.15
2022-11-16T21:13:05.387Z,4.07
2022-11-16T21:15:36.847Z,4.13
2022-11-16T21:18:06.572Z,4.28
2022-11-16T21:20:34.918Z,4.55
2022-11-16T21:23:03.825Z,4.03
2022-11-16T21:25:31.831Z,3.85
2022-11-16T21:27:59.874Z,3.92
2022-11-16T21:30:28.035Z,4.75
2022-11-16T21:32:56.067Z,4.80
2022-11-16T21:35:27.037Z,3.85
2022-11-16T21:37:55.096Z,4.30
2022-11-16T21:40:23.098Z,5.00
2022-11-16T21:42:52.490Z,4.30
2022-11-16T21:45:20.500Z,5.03
2022-11-16T21:47:48.831Z,4.50
2022-11-16T21:50:31.251Z,5.10
2022-11-16T21:53:01.392Z,6.40
2022-11-16T21:55:29.559Z,5.97
2022-11-16T21:57:58.074Z,5.40
2022-11-16T22:00:26.410Z,5.28
2022-11-16T22:02:54.745Z,5.85
2022-11-16T22:05:40.440Z,4.80
2022-11-16T22:08:12.094Z,5.45
2022-11-16T22:10:40.337Z,5.18
2022-11-16T22:13:08.270Z,5.50
2022-11-16T22:15:36.176Z,5.63
2022-11-16T22:18:04.518Z,4.95
2022-11-16T22:20:32.833Z,4.55
2022-11-16T22:23:00.799Z,5.45
2022-11-16T22:25:30.150Z,4.97
2022-11-16T22:28:19.614Z,4.65
2022-11-16T22:30:51.184Z,4.30
2022-11-16T22:33:19.837Z,4.72
2022-11-16T22:35:48.731Z,4.65
2022-11-16T22:38:16.872Z,4.53
2022-11-16T22:40:51.938Z,4.35
2022-11-16T22:43:20.740Z,5.68
2022-11-16T22:45:50.129Z,4.45
2022-11-16T22:48:18.532Z,4.90
2022-11-16T22:50:46.544Z,4.40
2022-11-16T22:53:15.535Z,4.72
2022-11-16T22:55:44.613Z,6.40
2022-11-16T22:58:14.013Z,4.43
2022-11-16T23:00:42.461Z,4.40
2022-11-16T23:03:10.557Z,4.82
2022-11-16T23:05:39.102Z,4.50
2022-11-16T23:08:07.243Z,5.47
2022-11-16T23:10:55.221Z,4.80
2022-11-16T23:13:43.257Z,3.92
2022-11-16T23:16:11.486Z,4.97
2022-11-16T23:18:39.456Z,4.22
2022-11-16T23:21:24.868Z,4.30
2022-11-16T23:24:10.497Z,4.72
2022-11-16T23:26:55.934Z,5.05
2022-11-16T23:29:25.272Z,4.63
2022-11-16T23:31:53.277Z,5.93
2022-11-16T23:34:21.381Z,4.32
2022-11-16T23:36:49.366Z,4.63
2022-11-16T23:39:17.400Z,5.07
2022-11-16T23:42:03.221Z,4.60
2022-11-16T23:44:32.449Z,4.65
2022-11-16T23:47:00.427Z,4.95
2022-11-16T23:49:28.394Z,4.50
2022-11-16T23:51:56.795Z,4.80
2022-11-16T23:54:24.818Z,4.93
2022-11-16T23:56:52.799Z,4.82
2022-11-16T23:59:20.830Z,5.05
